sensor_id;sensor_type;location;lat;lon;timestamp;P1;durP1;ratioP1;P2;durP2;ratioP2
52208;SDS011;38507;53.132;6.394;2023-12-22T00:02:21;19.08;;;3.30;;
52208;SDS011;38507;53.132;6.394;2023-12-22T00:04:48;24.38;;;3.85;;
52208;SDS011;38507;53.132;6.394;2023-12-22T00:07:14;18.50;;;3.13;;
52208;SDS011;38507;53.132;6.394;2023-12-22T00:09:45;18.10;;;3.17;;
52208;SDS011;38507;53.132;6.394;2023-12-22T00:12:10;18.27;;;2.88;;
52208;SDS011;38507;53.132;6.394;2023-12-22T00:14:36;27.35;;;4.13;;
52208;SDS011;38507;53.132;6.394;2023-12-22T00:17:02;25.10;;;3.67;;
52208;SDS011;38507;53.132;6.394;2023-12-22T00:19:28;31.40;;;4.82;;
52208;SDS011;38507;53.132;6.394;2023-12-22T00:21:54;24.30;;;3.92;;
52208;SDS011;38507;53.132;6.394;2023-12-22T00:24:19;31.42;;;4.80;;
52208;SDS011;38507;53.132;6.394;2023-12-22T00:26:45;30.10;;;4.68;;
52208;SDS011;38507;53.132;6.394;2023-12-22T00:29:11;25.33;;;4.00;;
52208;SDS011;38507;53.132;6.394;2023-12-22T00:31:36;30.30;;;3.65;;
52208;SDS011;38507;53.132;6.394;2023-12-22T00:34:02;24.77;;;4.05;;
52208;SDS011;38507;53.132;6.394;2023-12-22T00:36:27;28.95;;;4.68;;
52208;SDS011;38507;53.132;6.394;2023-12-22T00:38:53;23.55;;;4.43;;
52208;SDS011;38507;53.132;6.394;2023-12-22T00:41:19;24.05;;;4.07;;
52208;SDS011;38507;53.132;6.394;2023-12-22T00:43:44;32.75;;;4.35;;
52208;SDS011;38507;53.132;6.394;2023-12-22T00:46:10;27.00;;;4.55;;
52208;SDS011;38507;53.132;6.394;2023-12-22T00:48:35;38.05;;;4.40;;
52208;SDS011;38507;53.132;6.394;2023-12-22T00:51:02;28.80;;;4.40;;
52208;SDS011;38507;53.132;6.394;2023-12-22T00:53:28;41.63;;;5.60;;
52208;SDS011;38507;53.132;6.394;2023-12-22T00:55:53;47.45;;;5.40;;
52208;SDS011;38507;53.132;6.394;2023-12-22T00:58:19;40.25;;;5.60;;
52208;SDS011;38507;53.132;6.394;2023-12-22T01:00:44;27.08;;;4.68;;
52208;SDS011;38507;53.132;6.394;2023-12-22T01:03:10;37.35;;;4.85;;
52208;SDS011;38507;53.132;6.394;2023-12-22T01:05:37;35.83;;;4.45;;
52208;SDS011;38507;53.132;6.394;2023-12-22T01:08:02;26.63;;;4.50;;
52208;SDS011;38507;53.132;6.394;2023-12-22T01:10:28;25.80;;;4.45;;
52208;SDS011;38507;53.132;6.394;2023-12-22T01:12:54;26.80;;;3.50;;
52208;SDS011;38507;53.132;6.394;2023-12-22T01:15:19;21.98;;;3.22;;
52208;SDS011;38507;53.132;6.394;2023-12-22T01:17:48;19.88;;;2.90;;
52208;SDS011;38507;53.132;6.394;2023-12-22T01:20:14;16.35;;;2.60;;
52208;SDS011;38507;53.132;6.394;2023-12-22T01:22:39;21.90;;;3.50;;
52208;SDS011;38507;53.132;6.394;2023-12-22T01:25:05;23.45;;;3.00;;
52208;SDS011;38507;53.132;6.394;2023-12-22T01:27:31;22.88;;;2.90;;
52208;SDS011;38507;53.132;6.394;2023-12-22T01:29:57;19.13;;;2.65;;
52208;SDS011;38507;53.132;6.394;2023-12-22T01:32:23;23.70;;;3.25;;
52208;SDS011;38507;53.132;6.394;2023-12-22T01:34:48;25.35;;;3.92;;
52208;SDS011;38507;53.132;6.394;2023-12-22T01:37:14;22.30;;;2.97;;
52208;SDS011;38507;53.132;6.394;2023-12-22T01:39:40;31.17;;;3.97;;
52208;SDS011;38507;53.132;6.394;2023-12-22T01:42:05;24.10;;;4.13;;
52208;SDS011;38507;53.132;6.394;2023-12-22T01:44:31;39.92;;;4.93;;
52208;SDS011;38507;53.132;6.394;2023-12-22T01:46:57;21.02;;;3.20;;
52208;SDS011;38507;53.132;6.394;2023-12-22T01:49:26;25.15;;;3.58;;
52208;SDS011;38507;53.132;6.394;2023-12-22T01:51:52;20.95;;;3.67;;
52208;SDS011;38507;53.132;6.394;2023-12-22T01:54:18;19.02;;;2.58;;
52208;SDS011;38507;53.132;6.394;2023-12-22T01:56:44;26.63;;;3.40;;
52208;SDS011;38507;53.132;6.394;2023-12-22T01:59:11;29.02;;;3.90;;
52208;SDS011;38507;53.132;6.394;2023-12-22T02:01:37;29.60;;;4.03;;
52208;SDS011;38507;53.132;6.394;2023-12-22T02:04:03;21.42;;;3.60;;
52208;SDS011;38507;53.132;6.394;2023-12-22T02:06:30;22.95;;;3.90;;
52208;SDS011;38507;53.132;6.394;2023-12-22T02:08:57;27.60;;;4.53;;
52208;SDS011;38507;53.132;6.394;2023-12-22T02:11:23;35.30;;;4.22;;
52208;SDS011;38507;53.132;6.394;2023-12-22T02:13:49;29.98;;;4.38;;
52208;SDS011;38507;53.132;6.394;2023-12-22T02:16:25;28.42;;;4.25;;
52208;SDS011;38507;53.132;6.394;2023-12-22T02:19:19;23.42;;;3.08;;
52208;SDS011;38507;53.132;6.394;2023-12-22T02:21:59;32.17;;;3.90;;
52208;SDS011;38507;53.132;6.394;2023-12-22T02:24:32;22.92;;;3.25;;
52208;SDS011;38507;53.132;6.394;2023-12-22T02:27:01;17.33;;;1.70;;
52208;SDS011;38507;53.132;6.394;2023-12-22T02:29:35;13.27;;;2.20;;
52208;SDS011;38507;53.132;6.394;2023-12-22T02:32:05;11.50;;;1.83;;
52208;SDS011;38507;53.132;6.394;2023-12-22T02:34:35;15.73;;;2.97;;
52208;SDS011;38507;53.132;6.394;2023-12-22T02:37:05;16.77;;;2.40;;
52208;SDS011;38507;53.132;6.394;2023-12-22T02:39:33;19.50;;;2.90;;
52208;SDS011;38507;53.132;6.394;2023-12-22T02:41:59;25.48;;;2.65;;
52208;SDS011;38507;53.132;6.394;2023-12-22T02:44:25;20.35;;;2.88;;
52208;SDS011;38507;53.132;6.394;2023-12-22T02:46:52;20.27;;;2.95;;
52208;SDS011;38507;53.132;6.394;2023-12-22T02:49:17;24.17;;;3.25;;
52208;SDS011;38507;53.132;6.394;2023-12-22T02:51:44;19.15;;;2.75;;
52208;SDS011;38507;53.132;6.394;2023-12-22T02:54:10;18.52;;;3.05;;
52208;SDS011;38507;53.132;6.394;2023-12-22T02:56:35;21.73;;;2.95;;
52208;SDS011;38507;53.132;6.394;2023-12-22T02:59:01;23.52;;;2.85;;
52208;SDS011;38507;53.132;6.394;2023-12-22T03:01:27;25.95;;;3.28;;
52208;SDS011;38507;53.132;6.394;2023-12-22T03:03:52;14.85;;;2.20;;
52208;SDS011;38507;53.132;6.394;2023-12-22T03:06:18;23.85;;;3.28;;
52208;SDS011;38507;53.132;6.394;2023-12-22T03:08:43;18.10;;;2.97;;
52208;SDS011;38507;53.132;6.394;2023-12-22T03:11:09;16.20;;;2.30;;
52208;SDS011;38507;53.132;6.394;2023-12-22T03:13:35;15.35;;;2.22;;
52208;SDS011;38507;53.132;6.394;2023-12-22T03:16:00;21.77;;;3.03;;
52208;SDS011;38507;53.132;6.394;2023-12-22T03:18:26;18.55;;;3.20;;
52208;SDS011;38507;53.132;6.394;2023-12-22T03:20:52;22.33;;;2.90;;
52208;SDS011;38507;53.132;6.394;2023-12-22T03:23:17;16.65;;;2.72;;
52208;SDS011;38507;53.132;6.394;2023-12-22T03:25:43;21.63;;;3.40;;
52208;SDS011;38507;53.132;6.394;2023-12-22T03:28:08;15.05;;;2.67;;
52208;SDS011;38507;53.132;6.394;2023-12-22T03:30:34;23.10;;;3.35;;
52208;SDS011;38507;53.132;6.394;2023-12-22T03:33:00;23.70;;;3.10;;
52208;SDS011;38507;53.132;6.394;2023-12-22T03:35:26;26.70;;;3.30;;
52208;SDS011;38507;53.132;6.394;2023-12-22T03:37:52;32.10;;;3.38;;
52208;SDS011;38507;53.132;6.394;2023-12-22T03:40:17;24.65;;;3.42;;
52208;SDS011;38507;53.132;6.394;2023-12-22T03:42:43;29.00;;;4.05;;
52208;SDS011;38507;53.132;6.394;2023-12-22T03:45:09;29.70;;;4.10;;
52208;SDS011;38507;53.132;6.394;2023-12-22T03:47:34;24.65;;;3.67;;
52208;SDS011;38507;53.132;6.394;2023-12-22T03:50:00;27.17;;;4.07;;
52208;SDS011;38507;53.132;6.394;2023-12-22T03:52:25;24.05;;;3.88;;
52208;SDS011;38507;53.132;6.394;2023-12-22T03:54:51;31.55;;;4.57;;
52208;SDS011;38507;53.132;6.394;2023-12-22T03:57:17;33.70;;;4.50;;
52208;SDS011;38507;53.132;6.394;2023-12-22T03:59:42;29.88;;;4.25;;
52208;SDS011;38507;53.132;6.394;2023-12-22T04:02:08;32.58;;;4.63;;
52208;SDS011;38507;53.132;6.394;2023-12-22T04:04:37;30.40;;;4.40;;
52208;SDS011;38507;53.132;6.394;2023-12-22T04:07:03;32.15;;;3.80;;
52208;SDS011;38507;53.132;6.394;2023-12-22T04:09:29;33.70;;;5.22;;
52208;SDS011;38507;53.132;6.394;2023-12-22T04:11:54;34.13;;;4.28;;
52208;SDS011;38507;53.132;6.394;2023-12-22T04:14:20;37.70;;;5.63;;
52208;SDS011;38507;53.132;6.394;2023-12-22T04:16:45;35.70;;;3.90;;
52208;SDS011;38507;53.132;6.394;2023-12-22T04:19:11;21.73;;;3.65;;
52208;SDS011;38507;53.132;6.394;2023-12-22T04:21:37;29.27;;;4.10;;
52208;SDS011;38507;53.132;6.394;2023-12-22T04:24:02;36.95;;;4.25;;
52208;SDS011;38507;53.132;6.394;2023-12-22T04:26:29;34.80;;;4.50;;
52208;SDS011;38507;53.132;6.394;2023-12-22T04:28:55;32.78;;;3.75;;
52208;SDS011;38507;53.132;6.394;2023-12-22T04:31:20;28.77;;;3.92;;
52208;SDS011;38507;53.132;6.394;2023-12-22T04:33:46;23.02;;;3.63;;
52208;SDS011;38507;53.132;6.394;2023-12-22T04:36:12;29.77;;;4.55;;
52208;SDS011;38507;53.132;6.394;2023-12-22T04:38:37;36.08;;;4.75;;
52208;SDS011;38507;53.132;6.394;2023-12-22T04:41:03;27.98;;;3.75;;
52208;SDS011;38507;53.132;6.394;2023-12-22T04:43:29;28.88;;;3.63;;
52208;SDS011;38507;53.132;6.394;2023-12-22T04:45:54;27.20;;;4.18;;
52208;SDS011;38507;53.132;6.394;2023-12-22T04:48:20;21.75;;;3.45;;
52208;SDS011;38507;53.132;6.394;2023-12-22T04:50:46;22.38;;;3.28;;
52208;SDS011;38507;53.132;6.394;2023-12-22T04:53:11;20.20;;;2.58;;
52208;SDS011;38507;53.132;6.394;2023-12-22T04:55:37;18.25;;;3.42;;
52208;SDS011;38507;53.132;6.394;2023-12-22T04:58:11;27.92;;;3.75;;
52208;SDS011;38507;53.132;6.394;2023-12-22T05:00:37;27.10;;;3.70;;
52208;SDS011;38507;53.132;6.394;2023-12-22T05:03:03;30.90;;;4.40;;
52208;SDS011;38507;53.132;6.394;2023-12-22T05:05:28;23.60;;;3.50;;
52208;SDS011;38507;53.132;6.394;2023-12-22T05:07:54;36.70;;;5.32;;
52208;SDS011;38507;53.132;6.394;2023-12-22T05:10:20;44.17;;;4.47;;
52208;SDS011;38507;53.132;6.394;2023-12-22T05:12:45;23.55;;;3.17;;
52208;SDS011;38507;53.132;6.394;2023-12-22T05:15:11;26.73;;;3.65;;
52208;SDS011;38507;53.132;6.394;2023-12-22T05:17:36;31.52;;;4.80;;
52208;SDS011;38507;53.132;6.394;2023-12-22T05:20:02;27.02;;;3.50;;
52208;SDS011;38507;53.132;6.394;2023-12-22T05:22:28;27.60;;;4.18;;
52208;SDS011;38507;53.132;6.394;2023-12-22T05:24:57;30.63;;;4.97;;
52208;SDS011;38507;53.132;6.394;2023-12-22T05:27:23;27.98;;;4.30;;
52208;SDS011;38507;53.132;6.394;2023-12-22T05:29:50;25.65;;;4.50;;
52208;SDS011;38507;53.132;6.394;2023-12-22T05:32:15;23.60;;;3.92;;
52208;SDS011;38507;53.132;6.394;2023-12-22T05:34:41;24.65;;;4.03;;
52208;SDS011;38507;53.132;6.394;2023-12-22T05:37:07;22.58;;;3.70;;
52208;SDS011;38507;53.132;6.394;2023-12-22T05:39:32;27.58;;;4.53;;
52208;SDS011;38507;53.132;6.394;2023-12-22T05:41:58;28.00;;;4.07;;
52208;SDS011;38507;53.132;6.394;2023-12-22T05:44:23;24.45;;;3.78;;
52208;SDS011;38507;53.132;6.394;2023-12-22T05:46:49;35.40;;;4.43;;
52208;SDS011;38507;53.132;6.394;2023-12-22T05:49:15;32.20;;;3.90;;
52208;SDS011;38507;53.132;6.394;2023-12-22T05:51:41;25.77;;;3.33;;
52208;SDS011;38507;53.132;6.394;2023-12-22T05:54:07;27.35;;;3.95;;
52208;SDS011;38507;53.132;6.394;2023-12-22T05:56:33;24.15;;;3.50;;
52208;SDS011;38507;53.132;6.394;2023-12-22T05:58:59;36.38;;;3.78;;
52208;SDS011;38507;53.132;6.394;2023-12-22T06:01:25;21.65;;;3.67;;
52208;SDS011;38507;53.132;6.394;2023-12-22T06:03:50;21.77;;;3.47;;
52208;SDS011;38507;53.132;6.394;2023-12-22T06:06:16;21.55;;;3.90;;
52208;SDS011;38507;53.132;6.394;2023-12-22T06:08:43;31.80;;;3.63;;
52208;SDS011;38507;53.132;6.394;2023-12-22T06:11:09;27.05;;;3.67;;
52208;SDS011;38507;53.132;6.394;2023-12-22T06:13:35;19.95;;;3.28;;
52208;SDS011;38507;53.132;6.394;2023-12-22T06:16:00;30.52;;;3.50;;
52208;SDS011;38507;53.132;6.394;2023-12-22T06:18:26;25.48;;;3.28;;
52208;SDS011;38507;53.132;6.394;2023-12-22T06:20:52;32.35;;;3.90;;
52208;SDS011;38507;53.132;6.394;2023-12-22T06:23:18;24.88;;;4.68;;
52208;SDS011;38507;53.132;6.394;2023-12-22T06:25:43;19.40;;;3.10;;
52208;SDS011;38507;53.132;6.394;2023-12-22T06:28:11;25.58;;;2.97;;
52208;SDS011;38507;53.132;6.394;2023-12-22T06:30:37;24.88;;;3.40;;
52208;SDS011;38507;53.132;6.394;2023-12-22T06:33:03;18.77;;;2.75;;
52208;SDS011;38507;53.132;6.394;2023-12-22T06:35:29;23.10;;;3.35;;
52208;SDS011;38507;53.132;6.394;2023-12-22T06:37:56;20.30;;;2.58;;
52208;SDS011;38507;53.132;6.394;2023-12-22T06:40:26;21.95;;;2.70;;
52208;SDS011;38507;53.132;6.394;2023-12-22T06:42:52;24.95;;;3.55;;
52208;SDS011;38507;53.132;6.394;2023-12-22T06:45:17;23.65;;;2.97;;
52208;SDS011;38507;53.132;6.394;2023-12-22T06:47:43;22.27;;;3.03;;
52208;SDS011;38507;53.132;6.394;2023-12-22T06:50:08;20.42;;;3.53;;
52208;SDS011;38507;53.132;6.394;2023-12-22T06:52:34;22.08;;;3.28;;
52208;SDS011;38507;53.132;6.394;2023-12-22T06:55:00;27.25;;;3.95;;
52208;SDS011;38507;53.132;6.394;2023-12-22T06:57:25;15.63;;;3.00;;
52208;SDS011;38507;53.132;6.394;2023-12-22T06:59:51;20.63;;;3.30;;
52208;SDS011;38507;53.132;6.394;2023-12-22T07:02:17;17.85;;;3.00;;
52208;SDS011;38507;53.132;6.394;2023-12-22T07:07:48;23.15;;;2.90;;
52208;SDS011;38507;53.132;6.394;2023-12-22T07:10:15;24.40;;;3.60;;
52208;SDS011;38507;53.132;6.394;2023-12-22T07:12:41;25.63;;;3.40;;
52208;SDS011;38507;53.132;6.394;2023-12-22T07:15:07;21.33;;;3.30;;
52208;SDS011;38507;53.132;6.394;2023-12-22T07:17:33;17.67;;;2.83;;
52208;SDS011;38507;53.132;6.394;2023-12-22T07:19:59;20.48;;;3.05;;
52208;SDS011;38507;53.132;6.394;2023-12-22T07:22:24;12.40;;;2.13;;
52208;SDS011;38507;53.132;6.394;2023-12-22T07:24:50;23.33;;;3.60;;
52208;SDS011;38507;53.132;6.394;2023-12-22T07:27:17;18.67;;;3.65;;
52208;SDS011;38507;53.132;6.394;2023-12-22T07:29:43;24.35;;;2.92;;
52208;SDS011;38507;53.132;6.394;2023-12-22T07:32:09;22.98;;;3.65;;
52208;SDS011;38507;53.132;6.394;2023-12-22T07:34:34;17.88;;;3.00;;
52208;SDS011;38507;53.132;6.394;2023-12-22T07:37:00;17.27;;;2.60;;
52208;SDS011;38507;53.132;6.394;2023-12-22T07:39:26;17.77;;;2.33;;
52208;SDS011;38507;53.132;6.394;2023-12-22T07:41:52;25.02;;;3.83;;
52208;SDS011;38507;53.132;6.394;2023-12-22T07:44:17;25.00;;;2.78;;
52208;SDS011;38507;53.132;6.394;2023-12-22T07:46:43;18.42;;;2.90;;
52208;SDS011;38507;53.132;6.394;2023-12-22T07:49:08;28.75;;;4.28;;
52208;SDS011;38507;53.132;6.394;2023-12-22T07:51:35;17.55;;;2.92;;
52208;SDS011;38507;53.132;6.394;2023-12-22T07:54:00;31.45;;;3.83;;
52208;SDS011;38507;53.132;6.394;2023-12-22T07:56:26;22.38;;;3.25;;
52208;SDS011;38507;53.132;6.394;2023-12-22T07:58:52;22.00;;;2.72;;
52208;SDS011;38507;53.132;6.394;2023-12-22T08:01:18;20.27;;;3.83;;
52208;SDS011;38507;53.132;6.394;2023-12-22T08:03:44;23.10;;;3.33;;
52208;SDS011;38507;53.132;6.394;2023-12-22T08:06:09;26.98;;;3.30;;
52208;SDS011;38507;53.132;6.394;2023-12-22T08:08:35;23.05;;;3.42;;
52208;SDS011;38507;53.132;6.394;2023-12-22T08:11:01;20.42;;;3.20;;
52208;SDS011;38507;53.132;6.394;2023-12-22T08:13:27;23.55;;;2.85;;
52208;SDS011;38507;53.132;6.394;2023-12-22T08:15:52;19.23;;;2.97;;
52208;SDS011;38507;53.132;6.394;2023-12-22T08:18:18;25.10;;;3.40;;
52208;SDS011;38507;53.132;6.394;2023-12-22T08:20:44;22.67;;;3.13;;
52208;SDS011;38507;53.132;6.394;2023-12-22T08:23:10;14.65;;;2.22;;
52208;SDS011;38507;53.132;6.394;2023-12-22T08:25:37;15.18;;;1.98;;
52208;SDS011;38507;53.132;6.394;2023-12-22T08:28:04;16.30;;;2.15;;
52208;SDS011;38507;53.132;6.394;2023-12-22T08:30:30;25.50;;;3.00;;
52208;SDS011;38507;53.132;6.394;2023-12-22T08:32:55;18.75;;;2.85;;
52208;SDS011;38507;53.132;6.394;2023-12-22T08:35:21;19.10;;;3.08;;
52208;SDS011;38507;53.132;6.394;2023-12-22T08:37:46;16.88;;;2.95;;
52208;SDS011;38507;53.132;6.394;2023-12-22T08:40:12;18.95;;;2.90;;
52208;SDS011;38507;53.132;6.394;2023-12-22T08:42:38;19.77;;;2.78;;
52208;SDS011;38507;53.132;6.394;2023-12-22T08:45:04;20.05;;;2.55;;
52208;SDS011;38507;53.132;6.394;2023-12-22T08:47:30;17.50;;;2.30;;
52208;SDS011;38507;53.132;6.394;2023-12-22T08:49:56;15.60;;;1.90;;
52208;SDS011;38507;53.132;6.394;2023-12-22T08:52:21;16.50;;;2.13;;
52208;SDS011;38507;53.132;6.394;2023-12-22T08:54:47;16.67;;;2.58;;
52208;SDS011;38507;53.132;6.394;2023-12-22T08:57:13;14.57;;;1.75;;
52208;SDS011;38507;53.132;6.394;2023-12-22T08:59:38;15.13;;;2.08;;
52208;SDS011;38507;53.132;6.394;2023-12-22T09:02:04;17.05;;;2.35;;
52208;SDS011;38507;53.132;6.394;2023-12-22T09:04:31;15.20;;;1.70;;
52208;SDS011;38507;53.132;6.394;2023-12-22T09:06:56;10.43;;;1.48;;
52208;SDS011;38507;53.132;6.394;2023-12-22T09:09:22;13.02;;;1.77;;
52208;SDS011;38507;53.132;6.394;2023-12-22T09:11:49;13.80;;;1.83;;
52208;SDS011;38507;53.132;6.394;2023-12-22T09:14:15;11.75;;;1.85;;
52208;SDS011;38507;53.132;6.394;2023-12-22T09:16:41;9.15;;;1.77;;
52208;SDS011;38507;53.132;6.394;2023-12-22T09:19:09;13.95;;;2.40;;
52208;SDS011;38507;53.132;6.394;2023-12-22T09:21:35;11.63;;;1.55;;
52208;SDS011;38507;53.132;6.394;2023-12-22T09:24:00;9.18;;;1.45;;
52208;SDS011;38507;53.132;6.394;2023-12-22T09:26:26;14.93;;;1.88;;
52208;SDS011;38507;53.132;6.394;2023-12-22T09:28:54;8.52;;;1.80;;
52208;SDS011;38507;53.132;6.394;2023-12-22T09:31:20;10.63;;;1.55;;
52208;SDS011;38507;53.132;6.394;2023-12-22T09:33:47;13.38;;;1.90;;
52208;SDS011;38507;53.132;6.394;2023-12-22T09:36:13;15.63;;;2.08;;
52208;SDS011;38507;53.132;6.394;2023-12-22T09:38:39;19.05;;;2.50;;
52208;SDS011;38507;53.132;6.394;2023-12-22T09:41:06;16.17;;;2.83;;
52208;SDS011;38507;53.132;6.394;2023-12-22T09:43:33;19.80;;;3.10;;
52208;SDS011;38507;53.132;6.394;2023-12-22T09:46:01;19.33;;;2.53;;
52208;SDS011;38507;53.132;6.394;2023-12-22T09:48:27;16.58;;;2.20;;
52208;SDS011;38507;53.132;6.394;2023-12-22T09:50:54;16.77;;;2.15;;
52208;SDS011;38507;53.132;6.394;2023-12-22T09:53:20;15.13;;;1.85;;
52208;SDS011;38507;53.132;6.394;2023-12-22T09:55:46;18.77;;;2.15;;
52208;SDS011;38507;53.132;6.394;2023-12-22T09:58:14;15.27;;;2.20;;
52208;SDS011;38507;53.132;6.394;2023-12-22T10:00:41;15.32;;;2.30;;
52208;SDS011;38507;53.132;6.394;2023-12-22T10:03:07;21.02;;;3.00;;
52208;SDS011;38507;53.132;6.394;2023-12-22T10:05:36;16.92;;;2.17;;
52208;SDS011;38507;53.132;6.394;2023-12-22T10:08:02;20.95;;;3.03;;
52208;SDS011;38507;53.132;6.394;2023-12-22T10:10:29;11.70;;;1.95;;
52208;SDS011;38507;53.132;6.394;2023-12-22T10:12:56;13.57;;;2.65;;
52208;SDS011;38507;53.132;6.394;2023-12-22T10:15:22;21.05;;;2.13;;
52208;SDS011;38507;53.132;6.394;2023-12-22T10:17:54;19.52;;;2.42;;
52208;SDS011;38507;53.132;6.394;2023-12-22T10:20:20;15.38;;;2.05;;
52208;SDS011;38507;53.132;6.394;2023-12-22T10:22:46;14.52;;;2.50;;
52208;SDS011;38507;53.132;6.394;2023-12-22T10:25:14;18.20;;;3.03;;
52208;SDS011;38507;53.132;6.394;2023-12-22T10:27:42;19.00;;;2.65;;
52208;SDS011;38507;53.132;6.394;2023-12-22T10:30:08;23.20;;;3.25;;
52208;SDS011;38507;53.132;6.394;2023-12-22T10:32:39;13.55;;;2.30;;
52208;SDS011;38507;53.132;6.394;2023-12-22T10:35:10;13.98;;;2.85;;
52208;SDS011;38507;53.132;6.394;2023-12-22T10:37:36;14.00;;;2.00;;
52208;SDS011;38507;53.132;6.394;2023-12-22T10:40:07;20.42;;;2.40;;
52208;SDS011;38507;53.132;6.394;2023-12-22T10:42:34;15.27;;;2.47;;
52208;SDS011;38507;53.132;6.394;2023-12-22T10:45:00;15.80;;;1.92;;
52208;SDS011;38507;53.132;6.394;2023-12-22T10:47:27;22.73;;;2.55;;
52208;SDS011;38507;53.132;6.394;2023-12-22T10:49:54;21.80;;;2.88;;
52208;SDS011;38507;53.132;6.394;2023-12-22T10:52:19;17.17;;;2.78;;
52208;SDS011;38507;53.132;6.394;2023-12-22T10:54:48;15.73;;;2.33;;
52208;SDS011;38507;53.132;6.394;2023-12-22T10:57:17;22.40;;;2.80;;
52208;SDS011;38507;53.132;6.394;2023-12-22T10:59:45;23.90;;;2.38;;
52208;SDS011;38507;53.132;6.394;2023-12-22T11:02:15;15.57;;;2.45;;
52208;SDS011;38507;53.132;6.394;2023-12-22T11:04:48;24.42;;;3.10;;
52208;SDS011;38507;53.132;6.394;2023-12-22T11:07:25;15.82;;;2.15;;
52208;SDS011;38507;53.132;6.394;2023-12-22T11:09:56;16.77;;;2.60;;
52208;SDS011;38507;53.132;6.394;2023-12-22T11:12:24;11.45;;;2.38;;
52208;SDS011;38507;53.132;6.394;2023-12-22T11:14:51;19.80;;;2.83;;
52208;SDS011;38507;53.132;6.394;2023-12-22T11:17:21;24.13;;;2.50;;
52208;SDS011;38507;53.132;6.394;2023-12-22T11:19:48;16.15;;;3.45;;
52208;SDS011;38507;53.132;6.394;2023-12-22T11:22:16;19.42;;;2.58;;
52208;SDS011;38507;53.132;6.394;2023-12-22T11:24:45;21.63;;;2.65;;
52208;SDS011;38507;53.132;6.394;2023-12-22T11:27:13;20.30;;;2.65;;
52208;SDS011;38507;53.132;6.394;2023-12-22T11:29:40;17.25;;;2.70;;
52208;SDS011;38507;53.132;6.394;2023-12-22T11:32:06;21.40;;;3.22;;
52208;SDS011;38507;53.132;6.394;2023-12-22T11:34:33;20.50;;;2.63;;
52208;SDS011;38507;53.132;6.394;2023-12-22T11:37:01;26.55;;;3.15;;
52208;SDS011;38507;53.132;6.394;2023-12-22T11:39:30;21.17;;;2.40;;
52208;SDS011;38507;53.132;6.394;2023-12-22T11:41:56;18.73;;;3.25;;
52208;SDS011;38507;53.132;6.394;2023-12-22T11:44:22;23.83;;;2.70;;
52208;SDS011;38507;53.132;6.394;2023-12-22T11:46:48;15.30;;;2.08;;
52208;SDS011;38507;53.132;6.394;2023-12-22T11:49:14;19.30;;;2.60;;
52208;SDS011;38507;53.132;6.394;2023-12-22T11:51:40;15.40;;;2.40;;
52208;SDS011;38507;53.132;6.394;2023-12-22T11:54:43;18.67;;;2.55;;
52208;SDS011;38507;53.132;6.394;2023-12-22T11:57:29;18.02;;;2.17;;
52208;SDS011;38507;53.132;6.394;2023-12-22T11:59:58;17.33;;;2.22;;
52208;SDS011;38507;53.132;6.394;2023-12-22T12:02:26;17.60;;;3.03;;
52208;SDS011;38507;53.132;6.394;2023-12-22T12:04:52;10.85;;;2.05;;
52208;SDS011;38507;53.132;6.394;2023-12-22T12:10:07;18.98;;;2.13;;
52208;SDS011;38507;53.132;6.394;2023-12-22T12:12:33;16.05;;;2.53;;
52208;SDS011;38507;53.132;6.394;2023-12-22T12:15:06;19.95;;;2.42;;
52208;SDS011;38507;53.132;6.394;2023-12-22T12:17:42;15.32;;;1.65;;
52208;SDS011;38507;53.132;6.394;2023-12-22T12:20:08;18.23;;;2.10;;
52208;SDS011;38507;53.132;6.394;2023-12-22T12:22:36;22.23;;;2.33;;
52208;SDS011;38507;53.132;6.394;2023-12-22T12:25:09;17.58;;;2.40;;
52208;SDS011;38507;53.132;6.394;2023-12-22T12:27:36;14.60;;;2.42;;
52208;SDS011;38507;53.132;6.394;2023-12-22T12:30:10;20.27;;;2.38;;
52208;SDS011;38507;53.132;6.394;2023-12-22T12:32:42;22.02;;;2.67;;
52208;SDS011;38507;53.132;6.394;2023-12-22T12:35:11;20.27;;;1.98;;
52208;SDS011;38507;53.132;6.394;2023-12-22T12:37:37;15.95;;;2.92;;
52208;SDS011;38507;53.132;6.394;2023-12-22T12:40:04;17.55;;;2.40;;
52208;SDS011;38507;53.132;6.394;2023-12-22T12:42:33;10.85;;;2.10;;
52208;SDS011;38507;53.132;6.394;2023-12-22T12:45:03;15.07;;;2.50;;
52208;SDS011;38507;53.132;6.394;2023-12-22T12:47:30;19.75;;;2.20;;
52208;SDS011;38507;53.132;6.394;2023-12-22T12:49:56;20.00;;;2.42;;
52208;SDS011;38507;53.132;6.394;2023-12-22T12:52:23;17.77;;;2.63;;
52208;SDS011;38507;53.132;6.394;2023-12-22T12:54:50;16.58;;;1.80;;
52208;SDS011;38507;53.132;6.394;2023-12-22T12:57:16;19.55;;;2.42;;
52208;SDS011;38507;53.132;6.394;2023-12-22T12:59:46;20.30;;;2.55;;
52208;SDS011;38507;53.132;6.394;2023-12-22T13:02:13;8.90;;;1.85;;
52208;SDS011;38507;53.132;6.394;2023-12-22T13:04:39;16.83;;;2.00;;
52208;SDS011;38507;53.132;6.394;2023-12-22T13:07:05;12.65;;;2.00;;
52208;SDS011;38507;53.132;6.394;2023-12-22T13:09:32;17.13;;;2.10;;
52208;SDS011;38507;53.132;6.394;2023-12-22T13:12:01;14.52;;;2.53;;
52208;SDS011;38507;53.132;6.394;2023-12-22T13:14:28;14.73;;;2.35;;
52208;SDS011;38507;53.132;6.394;2023-12-22T13:16:54;11.18;;;2.35;;
52208;SDS011;38507;53.132;6.394;2023-12-22T13:19:25;19.20;;;1.98;;
52208;SDS011;38507;53.132;6.394;2023-12-22T13:21:52;15.85;;;1.70;;
52208;SDS011;38507;53.132;6.394;2023-12-22T13:24:21;15.80;;;1.48;;
52208;SDS011;38507;53.132;6.394;2023-12-22T13:26:58;9.73;;;1.67;;
52208;SDS011;38507;53.132;6.394;2023-12-22T13:29:26;8.75;;;1.10;;
52208;SDS011;38507;53.132;6.394;2023-12-22T13:31:51;11.15;;;1.45;;
52208;SDS011;38507;53.132;6.394;2023-12-22T13:34:20;8.38;;;1.27;;
52208;SDS011;38507;53.132;6.394;2023-12-22T13:36:46;10.93;;;1.00;;
52208;SDS011;38507;53.132;6.394;2023-12-22T13:39:12;7.70;;;0.98;;
52208;SDS011;38507;53.132;6.394;2023-12-22T13:41:38;12.05;;;1.38;;
52208;SDS011;38507;53.132;6.394;2023-12-22T13:44:10;12.15;;;1.92;;
52208;SDS011;38507;53.132;6.394;2023-12-22T13:46:37;12.82;;;1.70;;
52208;SDS011;38507;53.132;6.394;2023-12-22T13:49:09;10.88;;;1.70;;
52208;SDS011;38507;53.132;6.394;2023-12-22T13:51:41;12.57;;;1.55;;
52208;SDS011;38507;53.132;6.394;2023-12-22T13:54:07;14.70;;;2.10;;
52208;SDS011;38507;53.132;6.394;2023-12-22T13:56:34;10.38;;;1.67;;
52208;SDS011;38507;53.132;6.394;2023-12-22T13:59:01;13.60;;;1.58;;
52208;SDS011;38507;53.132;6.394;2023-12-22T14:01:28;12.40;;;1.98;;
52208;SDS011;38507;53.132;6.394;2023-12-22T14:03:53;22.35;;;2.70;;
52208;SDS011;38507;53.132;6.394;2023-12-22T14:06:20;13.85;;;2.20;;
52208;SDS011;38507;53.132;6.394;2023-12-22T14:08:46;8.82;;;1.52;;
52208;SDS011;38507;53.132;6.394;2023-12-22T14:11:11;16.27;;;1.80;;
52208;SDS011;38507;53.132;6.394;2023-12-22T14:13:38;6.68;;;1.30;;
52208;SDS011;38507;53.132;6.394;2023-12-22T14:16:06;12.05;;;1.50;;
52208;SDS011;38507;53.132;6.394;2023-12-22T14:18:32;10.85;;;1.85;;
52208;SDS011;38507;53.132;6.394;2023-12-22T14:20:58;8.65;;;1.10;;
52208;SDS011;38507;53.132;6.394;2023-12-22T14:23:24;6.90;;;1.20;;
52208;SDS011;38507;53.132;6.394;2023-12-22T14:25:50;11.60;;;1.08;;
52208;SDS011;38507;53.132;6.394;2023-12-22T14:28:15;18.90;;;2.10;;
52208;SDS011;38507;53.132;6.394;2023-12-22T14:30:41;12.68;;;1.27;;
52208;SDS011;38507;53.132;6.394;2023-12-22T14:33:07;7.03;;;1.08;;
52208;SDS011;38507;53.132;6.394;2023-12-22T14:35:34;12.25;;;1.23;;
52208;SDS011;38507;53.132;6.394;2023-12-22T14:38:00;12.38;;;1.83;;
52208;SDS011;38507;53.132;6.394;2023-12-22T14:40:26;11.30;;;1.20;;